Time;durP1;ratioP1;P1;durP2;ratioP2;P2;SDS_P1;SDS_P2;PMS_P1;PMS_P2;Temp;Humidity;BMP_temperature;BMP_pressure;BME280_temperature;BME280_humidity;BME280_pressure;Samples;Min_cycle;Max_cycle;Signal;HPM_P1;HPM_P2
2020/12/23 00:01:40;;;;;;;26.70;3.97;;;;;;;6.94;85.91;100365.06;5044784;28;20048;-74
2020/12/23 00:04:05;;;;;;;26.50;4.50;;;;;;;6.90;86.47;100374.75;5047595;28;20363;-74
2020/12/23 00:06:34;;;;;;;28.42;4.28;;;;;;;6.87;86.28;100380.72;5040562;28;20033;-73
2020/12/23 00:09:04;;;;;;;22.40;3.88;;;;;;;6.85;86.63;100375.56;5039015;28;20520;-74
2020/12/23 00:11:29;;;;;;;22.65;3.70;;;;;;;6.85;86.90;100366.63;5039119;28;20035;-74
2020/12/23 00:13:54;;;;;;;23.67;4.20;;;;;;;6.86;87.01;100389.91;5042870;28;20021;-74
2020/12/23 00:16:20;;;;;;;16.13;3.22;;;;;;;6.88;86.89;100393.19;5062841;28;20029;-74
2020/12/23 00:18:45;;;;;;;19.58;3.60;;;;;;;6.90;86.81;100363.94;5042671;28;20047;-75
2020/12/23 00:21:10;;;;;;;21.60;3.13;;;;;;;6.93;86.94;100382.41;5064656;28;20044;-75
2020/12/23 00:23:36;;;;;;;29.33;4.75;;;;;;;6.96;86.68;100390.00;5049493;28;20029;-73
2020/12/23 00:26:01;;;;;;;20.58;3.53;;;;;;;6.98;86.72;100403.28;5049646;28;20037;-75
2020/12/23 00:28:27;;;;;;;16.42;2.88;;;;;;;7.00;86.54;100417.41;5052754;28;20024;-74
2020/12/23 00:30:52;;;;;;;17.83;3.78;;;;;;;7.01;86.44;100413.59;5047255;28;20437;-74
2020/12/23 00:33:17;;;;;;;15.32;3.05;;;;;;;7.01;86.36;100406.31;5047570;28;20033;-74
2020/12/23 00:35:43;;;;;;;21.00;4.22;;;;;;;6.99;86.30;100416.59;5048387;28;20037;-74
2020/12/23 00:38:08;;;;;;;21.30;3.53;;;;;;;6.95;86.33;100399.19;5045830;28;20037;-73
2020/12/23 00:40:34;;;;;;;25.05;4.45;;;;;;;6.93;86.51;100406.78;5050574;28;20049;-74
2020/12/23 00:42:59;;;;;;;22.15;4.70;;;;;;;6.93;86.91;100422.22;5052583;28;20500;-73
2020/12/23 00:45:24;;;;;;;21.38;3.67;;;;;;;6.95;87.12;100430.91;5047523;28;20040;-73
2020/12/23 00:47:50;;;;;;;26.27;4.72;;;;;;;6.98;86.74;100431.19;5062947;28;20393;-73
2020/12/23 00:50:15;;;;;;;18.40;3.30;;;;;;;6.97;87.05;100418.72;5047469;28;20048;-74
2020/12/23 00:52:41;;;;;;;21.85;3.33;;;;;;;6.97;86.88;100420.63;5058951;28;20028;-73
2020/12/23 00:55:06;;;;;;;24.80;4.20;;;;;;;6.95;86.98;100420.88;5040777;28;20029;-74
2020/12/23 00:57:31;;;;;;;37.67;4.78;;;;;;;6.96;87.16;100425.25;5048960;28;20040;-74
2020/12/23 00:59:57;;;;;;;29.65;5.57;;;;;;;6.95;87.42;100420.88;5050121;28;20091;-74
2020/12/23 01:02:22;;;;;;;28.48;3.67;;;;;;;6.87;87.44;100419.47;5041576;28;20472;-74
2020/12/23 01:04:47;;;;;;;30.77;5.65;;;;;;;6.81;87.39;100425.91;5042735;28;20039;-74
2020/12/23 01:07:13;;;;;;;32.58;4.50;;;;;;;6.79;87.49;100421.81;5052719;28;20032;-74
2020/12/23 01:09:38;;;;;;;19.98;4.15;;;;;;;6.78;87.79;100406.66;5043121;28;20081;-74
2020/12/23 01:12:04;;;;;;;20.52;5.30;;;;;;;6.79;87.63;100413.69;5045174;28;20017;-74
2020/12/23 01:14:29;;;;;;;23.92;3.60;;;;;;;6.78;87.53;100409.38;5039834;28;20033;-74
2020/12/23 01:16:54;;;;;;;25.15;4.28;;;;;;;6.78;87.75;100421.00;5039470;28;20024;-74
2020/12/23 01:19:20;;;;;;;28.25;4.03;;;;;;;6.81;87.87;100419.69;5050591;28;20398;-74
2020/12/23 01:21:45;;;;;;;17.77;3.95;;;;;;;6.81;88.08;100430.50;5036983;28;20037;-74
2020/12/23 01:24:11;;;;;;;30.70;5.18;;;;;;;6.83;88.04;100425.66;5046472;28;20025;-74
2020/12/23 01:26:37;;;;;;;34.08;5.80;;;;;;;6.82;87.95;100432.13;5025658;28;20707;-74
2020/12/23 01:29:02;;;;;;;34.05;5.32;;;;;;;6.77;88.04;100426.69;5085293;28;20032;-74
2020/12/23 01:31:28;;;;;;;26.38;4.72;;;;;;;6.71;88.13;100430.41;5046118;28;20025;-74
2020/12/23 01:33:53;;;;;;;27.50;4.18;;;;;;;6.64;88.17;100420.63;5037707;28;20036;-74
2020/12/23 01:36:18;;;;;;;37.08;4.65;;;;;;;6.62;88.30;100428.16;5035760;28;20034;-74
2020/12/23 01:38:44;;;;;;;25.40;4.38;;;;;;;6.59;88.35;100439.53;5029120;28;20063;-74
2020/12/23 01:41:09;;;;;;;32.80;4.10;;;;;;;6.58;88.56;100437.91;5040797;28;20064;-74
2020/12/23 01:43:35;;;;;;;22.55;3.47;;;;;;;6.57;88.62;100441.66;5044131;28;20041;-74
2020/12/23 01:46:00;;;;;;;25.23;3.13;;;;;;;6.58;88.69;100443.31;5043357;28;20037;-74
2020/12/23 01:48:28;;;;;;;27.23;4.22;;;;;;;6.60;88.59;100430.34;5046411;28;20480;-74
2020/12/23 01:50:57;;;;;;;21.98;3.63;;;;;;;6.60;88.37;100441.19;5048666;28;20036;-75
2020/12/23 01:53:23;;;;;;;26.45;5.13;;;;;;;6.61;88.77;100439.28;5034311;28;20029;-74
2020/12/23 01:55:48;;;;;;;25.20;4.90;;;;;;;6.61;88.56;100448.22;5030609;28;20029;-75
2020/12/23 01:58:14;;;;;;;24.75;4.18;;;;;;;6.58;89.04;100443.31;5032065;28;20047;-73
2020/12/23 02:00:40;;;;;;;18.35;4.13;;;;;;;6.60;88.90;100457.44;5043640;28;20154;-73
2020/12/23 02:03:07;;;;;;;30.45;4.13;;;;;;;6.59;88.47;100446.84;5042432;28;20021;-72
2020/12/23 02:05:33;;;;;;;21.45;3.42;;;;;;;6.61;89.08;100440.09;5041024;28;20068;-74
2020/12/23 02:07:59;;;;;;;20.08;4.32;;;;;;;6.65;89.11;100441.19;5031986;28;20540;-73
2020/12/23 02:10:24;;;;;;;24.27;3.90;;;;;;;6.66;89.13;100445.56;5042998;28;20023;-73
2020/12/23 02:12:51;;;;;;;25.17;3.95;;;;;;;6.69;89.20;100448.84;5047500;28;20029;-73
2020/12/23 02:15:16;;;;;;;25.77;4.30;;;;;;;6.71;89.14;100454.78;5043368;28;20029;-73
2020/12/23 02:17:42;;;;;;;19.05;4.60;;;;;;;6.74;89.17;100463.25;5028645;28;20032;-73
2020/12/23 02:20:09;;;;;;;30.35;4.80;;;;;;;6.73;88.75;100455.38;5046205;28;20408;-75
2020/12/23 02:22:34;;;;;;;29.27;4.97;;;;;;;6.69;88.82;100438.00;5046352;28;20033;-73
2020/12/23 02:25:00;;;;;;;19.08;3.10;;;;;;;6.65;88.82;100453.94;5039587;28;20033;-73
2020/12/23 02:27:25;;;;;;;24.73;3.50;;;;;;;6.63;88.95;100446.06;5043489;28;21094;-73
2020/12/23 02:29:53;;;;;;;20.60;4.13;;;;;;;6.66;88.86;100450.97;5043578;28;20029;-73
2020/12/23 02:32:19;;;;;;;20.55;3.30;;;;;;;6.72;88.93;100442.91;5049519;28;20029;-73
2020/12/23 02:34:45;;;;;;;23.80;3.53;;;;;;;6.77;89.15;100441.06;5033097;28;20074;-73
2020/12/23 02:37:10;;;;;;;26.63;5.13;;;;;;;6.82;88.66;100459.22;5043714;28;20029;-73
2020/12/23 02:39:36;;;;;;;16.65;3.05;;;;;;;6.81;88.67;100441.34;5053830;28;20033;-73
2020/12/23 02:42:02;;;;;;;13.32;3.17;;;;;;;6.80;88.49;100450.56;5022523;28;20034;-73
2020/12/23 02:44:28;;;;;;;21.27;3.67;;;;;;;6.78;88.75;100433.75;5047114;28;20064;-74
2020/12/23 02:46:57;;;;;;;15.82;2.92;;;;;;;6.75;88.88;100431.56;5046899;28;20211;-73
2020/12/23 02:49:23;;;;;;;16.35;3.72;;;;;;;6.72;88.68;100427.47;5048150;28;20102;-73
2020/12/23 02:51:49;;;;;;;28.85;3.83;;;;;;;6.70;88.72;100431.50;5043709;28;20107;-75
2020/12/23 02:54:14;;;;;;;29.48;4.00;;;;;;;6.68;88.88;100415.50;5040209;28;20033;-75
2020/12/23 02:56:40;;;;;;;21.80;4.30;;;;;;;6.70;89.01;100423.38;5049529;28;20039;-75
2020/12/23 02:59:05;;;;;;;25.77;4.18;;;;;;;6.69;88.71;100421.75;5037376;28;20029;-75
2020/12/23 03:01:30;;;;;;;25.60;4.10;;;;;;;6.65;89.01;100419.53;5040019;28;20032;-75
2020/12/23 03:03:56;;;;;;;19.40;2.75;;;;;;;6.66;89.30;100429.31;5046405;28;20401;-75
2020/12/23 03:06:21;;;;;;;15.57;3.03;;;;;;;6.72;89.27;100451.03;5046443;28;20029;-75
2020/12/23 03:08:47;;;;;;;23.65;3.85;;;;;;;6.76;89.34;100431.28;5047489;28;20024;-75
2020/12/23 03:11:12;;;;;;;27.83;3.78;;;;;;;6.78;89.33;100420.19;5040527;28;20041;-75
2020/12/23 03:13:37;;;;;;;25.48;3.35;;;;;;;6.76;89.21;100411.50;5063759;28;20033;-76
2020/12/23 03:16:03;;;;;;;18.35;3.78;;;;;;;6.76;89.16;100412.31;5040294;28;20037;-75
2020/12/23 03:18:28;;;;;;;23.20;3.03;;;;;;;6.78;89.23;100409.38;5041338;28;20490;-75
2020/12/23 03:20:54;;;;;;;17.33;3.10;;;;;;;6.76;89.27;100434.00;5043323;28;20024;-76
2020/12/23 03:23:19;;;;;;;12.93;2.40;;;;;;;6.80;88.80;100428.91;5048035;28;20379;-75
2020/12/23 03:25:44;;;;;;;23.98;3.50;;;;;;;6.80;88.84;100412.63;5044610;28;20079;-75
2020/12/23 03:28:10;;;;;;;12.20;2.92;;;;;;;6.82;88.83;100421.31;5046952;28;20029;-75
2020/12/23 03:30:35;;;;;;;14.50;3.20;;;;;;;6.83;88.46;100425.66;5045514;28;20033;-75
2020/12/23 03:33:01;;;;;;;17.02;2.20;;;;;;;6.83;88.19;100445.44;5041571;28;20029;-76
2020/12/23 03:35:26;;;;;;;18.98;3.08;;;;;;;6.86;88.76;100430.56;5037303;28;20521;-75
2020/12/23 03:37:51;;;;;;;21.40;4.82;;;;;;;6.86;88.30;100427.84;5046760;28;20043;-75
2020/12/23 03:40:17;;;;;;;13.10;2.08;;;;;;;6.86;88.25;100444.94;5050703;28;20122;-75
2020/12/23 03:42:42;;;;;;;17.52;2.88;;;;;;;6.86;87.92;100423.25;5028169;28;20067;-76
2020/12/23 03:45:08;;;;;;;17.90;3.08;;;;;;;6.85;87.71;100429.75;5043375;28;20369;-75
2020/12/23 03:47:33;;;;;;;20.55;2.75;;;;;;;6.83;87.85;100456.28;5037003;28;20033;-76
2020/12/23 03:49:58;;;;;;;16.98;2.53;;;;;;;6.82;87.29;100442.97;5039860;28;20059;-75
2020/12/23 03:52:24;;;;;;;15.05;3.22;;;;;;;6.81;86.88;100458.41;5040992;28;20029;-76
2020/12/23 03:54:49;;;;;;;9.93;1.90;;;;;;;6.81;85.90;100438.66;5041481;28;20048;-75
2020/12/23 03:57:15;;;;;;;17.88;2.85;;;;;;;6.79;85.24;100435.38;5049388;28;20033;-76
2020/12/23 03:59:40;;;;;;;10.98;2.53;;;;;;;6.80;84.98;100435.13;5052946;28;20086;-75
2020/12/23 04:02:06;;;;;;;10.70;1.98;;;;;;;6.81;84.30;100446.78;5026716;28;20025;-75
2020/12/23 04:04:31;;;;;;;15.95;2.85;;;;;;;6.80;83.89;100437.03;5052727;28;20029;-75
2020/12/23 04:06:56;;;;;;;11.25;2.20;;;;;;;6.82;82.97;100418.59;5048063;28;20021;-75
2020/12/23 04:09:22;;;;;;;7.30;1.75;;;;;;;6.80;82.50;100424.28;5046839;28;20092;-75
2020/12/23 04:11:47;;;;;;;13.93;2.78;;;;;;;6.80;82.35;100415.34;5046029;28;20036;-75
2020/12/23 04:14:13;;;;;;;13.35;2.03;;;;;;;6.80;82.21;100418.06;5044459;28;20044;-75
2020/12/23 04:16:39;;;;;;;16.80;3.92;;;;;;;6.80;82.13;100415.34;5050442;28;20473;-75
2020/12/23 04:19:04;;;;;;;13.23;2.97;;;;;;;6.81;81.94;100423.19;5050112;28;20033;-75
2020/12/23 04:21:29;;;;;;;12.75;2.25;;;;;;;6.82;81.87;100413.16;5053422;28;20024;-75
2020/12/23 04:23:55;;;;;;;8.93;1.95;;;;;;;6.81;81.53;100409.66;5050559;28;20424;-75
2020/12/23 04:26:20;;;;;;;13.98;2.65;;;;;;;6.81;81.85;100403.44;5051630;28;20036;-75
2020/12/23 04:28:46;;;;;;;17.20;2.75;;;;;;;6.78;81.68;100410.16;5050534;28;20036;-75
2020/12/23 04:31:11;;;;;;;15.98;3.15;;;;;;;6.73;82.03;100407.41;5045765;28;20025;-75
2020/12/23 04:33:36;;;;;;;15.45;2.25;;;;;;;6.74;81.63;100416.34;5066056;28;20375;-74
2020/12/23 04:36:02;;;;;;;12.60;2.17;;;;;;;6.72;81.83;100430.16;5047490;28;20040;-74
2020/12/23 04:38:27;;;;;;;23.40;3.38;;;;;;;6.69;82.00;100433.41;5047927;28;20406;-75
2020/12/23 04:40:53;;;;;;;22.55;3.50;;;;;;;6.69;81.74;100436.09;5046323;28;20056;-74
2020/12/23 04:43:19;;;;;;;14.68;2.42;;;;;;;6.68;82.06;100437.16;5045925;28;20029;-74
2020/12/23 04:45:45;;;;;;;20.80;2.90;;;;;;;6.67;81.83;100433.66;5065927;28;20045;-74
2020/12/23 04:48:12;;;;;;;11.70;2.88;;;;;;;6.65;81.92;100433.06;5029992;28;20063;-73
2020/12/23 04:50:37;;;;;;;14.70;3.22;;;;;;;6.63;82.22;100448.78;5028863;28;20032;-75
2020/12/23 04:53:03;;;;;;;25.25;3.05;;;;;;;6.65;81.95;100433.06;5059776;28;20029;-74
2020/12/23 04:55:28;;;;;;;12.55;2.25;;;;;;;6.65;81.94;100452.03;5048159;28;20429;-75
2020/12/23 04:57:54;;;;;;;16.27;2.85;;;;;;;6.69;81.63;100433.41;5057913;28;20072;-75
2020/12/23 05:00:19;;;;;;;10.30;2.28;;;;;;;6.73;81.31;100455.38;5048137;28;20017;-74
2020/12/23 05:02:45;;;;;;;21.13;3.47;;;;;;;6.73;81.18;100439.09;5033993;28;20067;-74
2020/12/23 05:05:10;;;;;;;18.77;2.97;;;;;;;6.69;81.11;100451.56;5047439;28;20378;-74
2020/12/23 05:07:36;;;;;;;19.15;3.08;;;;;;;6.67;81.33;100451.78;5044736;28;20035;-74
2020/12/23 05:10:01;;;;;;;19.75;3.38;;;;;;;6.69;81.55;100465.09;5025273;28;20033;-75
2020/12/23 05:12:27;;;;;;;19.50;2.95;;;;;;;6.70;81.50;100407.13;5078379;28;20363;-74
2020/12/23 05:14:52;;;;;;;26.73;3.50;;;;;;;6.71;81.14;100450.22;5045107;28;20036;-75
2020/12/23 05:17:17;;;;;;;17.15;3.00;;;;;;;6.72;81.14;100438.31;5047471;28;20083;-75
2020/12/23 05:19:45;;;;;;;18.65;3.53;;;;;;;6.71;81.67;100441.25;5041901;28;20036;-75
2020/12/23 05:22:10;;;;;;;19.00;2.53;;;;;;;6.66;81.51;100439.34;5063379;28;20044;-75
2020/12/23 05:24:37;;;;;;;15.90;3.50;;;;;;;6.64;81.59;100444.19;5014883;28;20474;-75
2020/12/23 05:27:04;;;;;;;12.30;2.40;;;;;;;6.65;81.47;100446.63;5081042;28;20044;-75
2020/12/23 05:29:29;;;;;;;21.40;4.40;;;;;;;6.66;81.79;100477.25;5044461;28;20036;-75
2020/12/23 05:31:55;;;;;;;16.10;2.50;;;;;;;6.67;81.94;100471.56;5045537;28;20633;-75
2020/12/23 05:34:20;;;;;;;15.02;3.28;;;;;;;6.67;81.81;100495.94;5038543;28;20043;-75
2020/12/23 05:36:46;;;;;;;16.90;2.60;;;;;;;6.72;81.79;100486.25;5042832;28;20433;-75
2020/12/23 05:39:11;;;;;;;14.75;2.55;;;;;;;6.71;81.61;100481.88;5044015;28;20052;-75
2020/12/23 05:41:37;;;;;;;14.38;3.40;;;;;;;6.70;81.75;100493.81;5041326;28;20041;-75
2020/12/23 05:44:16;;;;;;;19.55;3.17;;;;;;;6.68;81.89;100475.09;5042950;28;20578;-76
2020/12/23 05:46:42;;;;;;;12.80;2.53;;;;;;;6.68;81.88;100456.13;5040404;28;20116;-75
2020/12/23 05:49:10;;;;;;;18.98;3.40;;;;;;;6.69;81.55;100470.50;5027382;28;20048;-75
2020/12/23 05:51:36;;;;;;;10.35;2.40;;;;;;;6.67;81.86;100479.69;5039759;28;20090;-75
2020/12/23 05:54:01;;;;;;;16.25;3.33;;;;;;;6.67;81.62;100470.75;5041783;28;20453;-75
2020/12/23 05:56:27;;;;;;;14.10;2.45;;;;;;;6.64;81.62;100472.06;5044198;28;20035;-76
2020/12/23 05:58:53;;;;;;;11.45;2.33;;;;;;;6.64;81.62;100490.22;5041632;28;20032;-75
2020/12/23 06:01:18;;;;;;;23.23;3.50;;;;;;;6.64;81.36;100477.50;5043796;28;20075;-75
2020/12/23 06:03:55;;;;;;;17.85;2.47;;;;;;;6.66;81.61;100488.91;5044344;28;20071;-75
2020/12/23 06:06:27;;;;;;;17.40;2.95;;;;;;;6.65;81.41;100484.53;5045622;28;20443;-76
2020/12/23 06:08:55;;;;;;;16.83;2.90;;;;;;;6.64;81.63;100501.88;5030629;28;20036;-75
2020/12/23 06:11:36;;;;;;;24.23;3.55;;;;;;;6.61;81.65;100507.81;5042084;28;20033;-75
2020/12/23 06:14:13;;;;;;;20.55;2.70;;;;;;;6.62;81.74;100482.34;5041962;28;20052;-75
2020/12/23 06:16:49;;;;;;;29.30;2.85;;;;;;;6.60;81.57;100479.09;5041799;28;20035;-75
2020/12/23 06:19:22;;;;;;;23.15;4.00;;;;;;;6.59;82.12;100509.94;5041119;28;20029;-75
2020/12/23 06:21:47;;;;;;;24.67;4.15;;;;;;;6.60;81.75;100506.19;5044698;28;20500;-76
2020/12/23 06:24:13;;;;;;;15.45;2.40;;;;;;;6.60;82.21;100487.22;5029156;28;20041;-75
2020/12/23 06:26:46;;;;;;;12.35;2.35;;;;;;;6.59;82.10;100487.47;5049004;28;20041;-75
2020/12/23 06:29:16;;;;;;;14.93;2.65;;;;;;;6.58;81.91;100494.78;5085004;28;20071;-75
2020/12/23 06:31:51;;;;;;;20.33;3.40;;;;;;;6.56;82.12;100477.94;5037622;28;20048;-75
2020/12/23 06:34:23;;;;;;;18.38;3.28;;;;;;;6.52;81.96;100476.84;5041262;28;20056;-75
2020/12/23 06:36:49;;;;;;;18.83;3.42;;;;;;;6.50;82.30;100483.59;5041612;28;20017;-75
2020/12/23 06:39:18;;;;;;;17.30;2.97;;;;;;;6.48;82.33;100481.13;5046986;28;20425;-75
2020/12/23 06:41:46;;;;;;;22.23;2.88;;;;;;;6.49;82.44;100481.94;5043922;28;20509;-75
2020/12/23 06:44:11;;;;;;;16.17;3.17;;;;;;;6.48;82.35;100491.94;5026882;28;20442;-75
2020/12/23 06:46:58;;;;;;;17.13;3.08;;;;;;;6.49;82.47;100498.19;5039329;28;20478;-75
2020/12/23 06:49:43;;;;;;;24.30;2.80;;;;;;;6.50;82.47;100489.00;5044612;28;20028;-75
2020/12/23 06:52:21;;;;;;;20.15;4.35;;;;;;;6.51;82.61;100515.00;5045891;28;20044;-74
2020/12/23 06:54:50;;;;;;;16.42;3.15;;;;;;;6.53;82.56;100483.88;5039591;28;20028;-75
2020/12/23 06:57:34;;;;;;;12.60;2.50;;;;;;;6.51;82.75;100496.84;5041284;28;20029;-75
2020/12/23 07:00:00;;;;;;;13.50;2.80;;;;;;;6.53;82.44;100483.06;5043378;28;20035;-76
2020/12/23 07:02:26;;;;;;;16.25;3.03;;;;;;;6.53;82.52;100494.72;5043685;28;20137;-76
2020/12/23 07:04:52;;;;;;;16.48;2.78;;;;;;;6.54;82.79;100493.63;5042309;28;20052;-75
2020/12/23 07:07:37;;;;;;;23.17;4.00;;;;;;;6.53;82.74;100500.13;5025699;28;20063;-76
2020/12/23 07:10:16;;;;;;;19.98;3.15;;;;;;;6.53;82.61;100502.84;5042736;28;20052;-75
2020/12/23 07:12:42;;;;;;;16.23;2.88;;;;;;;6.56;82.96;100498.81;5034016;28;20373;-76
2020/12/23 07:15:16;;;;;;;22.77;3.85;;;;;;;6.55;82.97;100498.00;5034703;28;20029;-76
2020/12/23 07:17:42;;;;;;;22.90;2.85;;;;;;;6.56;82.88;100504.22;5041031;28;20120;-74
2020/12/23 07:20:07;;;;;;;25.00;4.03;;;;;;;6.55;83.04;100502.59;5045761;28;20024;-74
2020/12/23 07:22:36;;;;;;;19.20;2.42;;;;;;;6.55;83.29;100498.00;5041810;28;20171;-75
2020/12/23 07:25:01;;;;;;;15.73;1.92;;;;;;;6.56;83.04;100498.81;5047923;28;20086;-76
2020/12/23 07:27:27;;;;;;;11.13;2.28;;;;;;;6.58;83.36;100489.34;5043075;28;20030;-75
2020/12/23 07:29:56;;;;;;;14.25;3.13;;;;;;;6.59;83.19;100509.94;5040417;28;20053;-75
2020/12/23 07:32:24;;;;;;;13.98;2.47;;;;;;;6.59;83.47;100509.94;5041603;28;20047;-74
2020/12/23 07:34:50;;;;;;;29.55;4.18;;;;;;;6.63;83.32;100508.38;5053115;28;21012;-75
2020/12/23 07:37:15;;;;;;;22.55;3.25;;;;;;;6.65;83.14;100518.94;5035568;28;20064;-74
2020/12/23 07:39:42;;;;;;;30.77;4.22;;;;;;;6.65;83.46;100508.09;5040681;28;20037;-75
2020/12/23 07:42:07;;;;;;;19.67;2.97;;;;;;;6.66;83.36;100520.59;5026375;28;20052;-75
2020/12/23 07:44:34;;;;;;;11.05;2.35;;;;;;;6.71;83.37;100527.94;5036521;28;20020;-75
2020/12/23 07:47:06;;;;;;;20.02;3.83;;;;;;;6.69;83.47;100524.69;5045237;28;20024;-75
2020/12/23 07:49:31;;;;;;;29.35;5.72;;;;;;;6.65;83.54;100522.47;5047197;28;20017;-75
2020/12/23 07:51:57;;;;;;;10.88;3.42;;;;;;;6.64;83.48;100534.38;5044285;28;20051;-74
2020/12/23 07:54:22;;;;;;;22.48;3.13;;;;;;;6.65;83.74;100524.34;5039445;28;20028;-72
2020/12/23 07:56:48;;;;;;;27.00;5.93;;;;;;;6.64;83.86;100522.72;5038638;28;20021;-72
2020/12/23 07:59:22;;;;;;;18.98;3.60;;;;;;;6.63;83.97;100524.63;5041868;28;20136;-71
2020/12/23 08:01:48;;;;;;;20.23;3.70;;;;;;;6.63;84.01;100540.88;5041185;28;20044;-71
2020/12/23 08:04:13;;;;;;;16.15;3.83;;;;;;;6.64;84.24;100528.97;5043278;28;20032;-71
2020/12/23 08:06:39;;;;;;;21.20;4.03;;;;;;;6.68;83.98;100523.84;5042796;28;20616;-71
2020/12/23 08:09:09;;;;;;;20.60;4.10;;;;;;;6.72;83.96;100529.59;5039918;28;20029;-71
2020/12/23 08:11:35;;;;;;;26.02;3.80;;;;;;;6.73;83.60;100520.38;5036518;28;20060;-71
2020/12/23 08:14:01;;;;;;;13.13;3.95;;;;;;;6.77;83.00;100522.34;5031894;28;20412;-71
2020/12/23 08:16:26;;;;;;;22.98;4.03;;;;;;;6.80;82.54;100521.00;5032764;28;20628;-72
2020/12/23 08:18:52;;;;;;;17.75;2.90;;;;;;;6.83;82.75;100525.91;5035050;28;20041;-72
2020/12/23 08:21:17;;;;;;;23.17;3.33;;;;;;;6.82;82.63;100513.44;5032411;28;20059;-72
2020/12/23 08:23:43;;;;;;;17.67;3.75;;;;;;;6.82;82.52;100513.44;5033135;28;20029;-72
2020/12/23 08:26:09;;;;;;;22.98;3.58;;;;;;;6.84;82.57;100528.34;5033901;28;20044;-71
2020/12/23 08:28:41;;;;;;;23.02;3.80;;;;;;;6.85;82.35;100518.34;5032548;28;20025;-71
2020/12/23 08:31:19;;;;;;;;;;;;;;;6.89;82.74;100514.88;5033785;28;20031;-71
2020/12/23 08:33:46;;;;;;;14.10;2.63;;;;;;;6.91;82.67;100519.22;5033623;28;19928;-71
2020/12/23 08:36:12;;;;;;;22.95;3.42;;;;;;;6.92;82.35;100518.16;5018549;28;20051;-71
2020/12/23 08:38:37;;;;;;;20.08;3.35;;;;;;;6.94;83.00;100521.41;5020297;28;20079;-72
2020/12/23 08:41:12;;;;;;;25.67;3.72;;;;;;;6.95;83.14;100528.47;5034164;28;20522;-72
2020/12/23 08:43:45;;;;;;;20.33;4.25;;;;;;;6.97;83.05;100526.31;5020408;28;20572;-72
2020/12/23 08:46:10;;;;;;;29.30;4.75;;;;;;;6.97;83.23;100543.41;5037026;28;20124;-73
2020/12/23 08:48:36;;;;;;;22.27;3.58;;;;;;;6.98;82.89;100539.59;5019545;28;20029;-72
2020/12/23 08:51:03;;;;;;;18.25;3.28;;;;;;;7.01;82.98;100539.13;5018775;28;20040;-72
2020/12/23 08:53:38;;;;;;;17.23;2.30;;;;;;;7.03;83.27;100542.38;5036037;28;20500;-72
2020/12/23 08:56:33;;;;;;;25.02;3.58;;;;;;;7.02;83.31;100540.75;5035490;28;20041;-72
2020/12/23 08:59:02;;;;;;;25.55;3.88;;;;;;;7.03;83.41;100553.22;5036228;28;20040;-72
2020/12/23 09:01:28;;;;;;;22.45;3.58;;;;;;;7.04;83.00;100549.44;5036102;28;20521;-73
2020/12/23 09:04:07;;;;;;;16.60;3.30;;;;;;;7.05;83.15;100544.84;5019750;28;20090;-72
2020/12/23 09:06:37;;;;;;;24.02;4.15;;;;;;;7.02;83.33;100543.44;5039458;28;20036;-73
2020/12/23 09:09:13;;;;;;;14.20;3.03;;;;;;;7.03;83.44;100546.97;5074097;28;20037;-72
2020/12/23 09:11:49;;;;;;;30.20;4.45;;;;;;;7.03;83.31;100542.38;5024029;28;20029;-72
2020/12/23 09:14:28;;;;;;;17.00;2.92;;;;;;;7.04;83.44;100544.03;5047030;28;20029;-72
2020/12/23 09:17:01;;;;;;;21.20;2.97;;;;;;;7.08;83.27;100545.13;5043532;28;20505;-73
2020/12/23 09:19:47;;;;;;;18.10;2.50;;;;;;;7.11;82.96;100541.91;5038257;28;20738;-72
2020/12/23 09:22:22;;;;;;;25.63;3.53;;;;;;;7.11;83.17;100524.81;5041694;28;20032;-73
2020/12/23 09:24:47;;;;;;;16.55;2.45;;;;;;;7.13;83.51;100557.13;5041675;28;20024;-74
2020/12/23 09:27:23;;;;;;;21.92;3.45;;;;;;;7.13;83.29;100546.28;5027436;28;20390;-74
2020/12/23 09:29:48;;;;;;;19.40;3.20;;;;;;;7.13;83.42;100551.69;5045259;28;20029;-74
2020/12/23 09:32:14;;;;;;;28.30;3.53;;;;;;;7.13;83.46;100557.13;5072090;28;20027;-74
2020/12/23 09:34:39;;;;;;;19.15;2.90;;;;;;;7.11;83.57;100557.34;5038305;28;20047;-74
2020/12/23 09:37:06;;;;;;;19.52;3.22;;;;;;;7.10;83.40;100547.59;5050975;28;20163;-75
2020/12/23 09:39:34;;;;;;;34.60;4.18;;;;;;;7.09;83.53;100541.38;5035373;28;20029;-72
2020/12/23 09:42:00;;;;;;;23.48;3.80;;;;;;;7.08;83.85;100545.13;5028157;28;20184;-73
2020/12/23 09:44:25;;;;;;;29.60;4.03;;;;;;;7.09;83.64;100545.94;5047288;28;20031;-72
2020/12/23 09:46:51;;;;;;;24.42;3.63;;;;;;;7.10;83.90;100539.47;5045547;28;20028;-72
2020/12/23 09:49:16;;;;;;;17.15;2.97;;;;;;;7.11;83.81;100550.03;5040063;28;20044;-72
2020/12/23 09:51:48;;;;;;;27.92;4.07;;;;;;;7.13;83.95;100549.78;5045802;28;20414;-72
2020/12/23 09:54:14;;;;;;;19.95;3.05;;;;;;;7.16;83.87;100548.47;5039694;28;20029;-71
2020/12/23 09:56:46;;;;;;;15.00;2.67;;;;;;;7.19;83.76;100550.66;5042263;28;20065;-76
2020/12/23 09:59:12;;;;;;;;;;;;;;;7.22;83.66;100547.44;5038190;28;20112;-74
2020/12/23 10:01:37;;;;;;;18.25;2.72;;;;;;;7.23;83.77;100551.75;5042068;28;20043;-75
2020/12/23 10:04:02;;;;;;;19.45;3.10;;;;;;;7.24;83.81;100558.84;5036816;28;20037;-74
2020/12/23 10:06:28;;;;;;;15.13;3.38;;;;;;;7.25;83.74;100576.72;5019078;28;20029;-74
2020/12/23 10:08:54;;;;;;;14.65;3.25;;;;;;;7.26;83.83;100567.53;5026311;28;20032;-78
2020/12/23 10:11:19;;;;;;;13.15;2.13;;;;;;;7.27;84.05;100566.47;5025077;28;20033;-82
2020/12/23 10:13:45;;;;;;;20.85;2.90;;;;;;;7.28;83.75;100568.09;5033020;28;20032;-82
2020/12/23 10:16:11;;;;;;;14.48;2.38;;;;;;;7.27;83.75;100556.44;5034468;28;20111;-82
2020/12/23 10:18:37;;;;;;;16.13;2.30;;;;;;;7.26;83.71;100579.22;5029528;28;20033;-85
2020/12/23 10:21:03;;;;;;;19.02;3.55;;;;;;;7.25;83.93;100566.69;5060409;28;20025;-85
2020/12/23 10:23:29;;;;;;;17.27;2.80;;;;;;;7.23;83.94;100578.88;5029014;28;20017;-85
2020/12/23 10:25:55;;;;;;;19.92;2.28;;;;;;;7.23;84.29;100582.44;5032086;28;20028;-86
2020/12/23 10:28:22;;;;;;;18.45;4.50;;;;;;;7.24;83.97;100596.81;5037900;28;20020;-85
2020/12/23 10:30:48;;;;;;;20.75;3.97;;;;;;;7.25;84.22;100587.59;5024307;28;20056;-86
2020/12/23 10:33:13;;;;;;;17.20;3.03;;;;;;;7.26;84.06;100590.06;5034810;28;20018;-86
2020/12/23 10:35:39;;;;;;;20.45;5.03;;;;;;;7.29;84.22;100588.72;5047069;28;20032;-82
2020/12/23 10:38:05;;;;;;;16.15;3.15;;;;;;;7.30;84.17;100595.78;5047406;28;20021;-84
2020/12/23 10:40:30;;;;;;;22.25;3.58;;;;;;;7.31;84.25;100586.53;5049853;28;20052;-81
2020/12/23 10:42:56;;;;;;;26.20;3.75;;;;;;;7.32;84.36;100588.22;5048069;28;20049;-84
2020/12/23 10:45:21;;;;;;;20.58;3.20;;;;;;;7.32;83.96;100578.16;5025064;28;20029;-83
2020/12/23 10:47:47;;;;;;;22.55;2.65;;;;;;;7.32;83.82;100594.44;5047332;28;20028;-84
2020/12/23 10:50:13;;;;;;;17.15;3.05;;;;;;;7.32;83.85;100593.63;5064302;28;20037;-80
2020/12/23 10:52:38;;;;;;;29.30;3.83;;;;;;;7.29;83.92;100578.69;5078341;28;20024;-83
2020/12/23 10:55:03;;;;;;;14.55;2.92;;;;;;;7.29;84.09;100584.09;5048928;28;20028;-82
2020/12/23 10:57:33;;;;;;;15.45;2.85;;;;;;;7.28;84.04;100576.22;5043098;28;20029;-82
2020/12/23 10:59:59;;;;;;;19.95;3.00;;;;;;;7.28;84.19;100584.34;5046340;28;20044;-81
2020/12/23 11:02:25;;;;;;;19.92;2.47;;;;;;;7.27;84.11;100580.00;5049230;28;20033;-82
2020/12/23 11:04:50;;;;;;;24.65;3.50;;;;;;;7.25;84.13;100587.59;5048964;28;20658;-84
2020/12/23 11:07:17;;;;;;;15.60;2.30;;;;;;;7.24;84.17;100575.94;5046196;28;20132;-82
2020/12/23 11:09:43;;;;;;;18.38;3.45;;;;;;;7.25;84.28;100576.72;5065132;28;20043;-82
2020/12/23 11:12:09;;;;;;;21.90;3.40;;;;;;;7.25;83.95;100576.72;5053423;28;20013;-84
2020/12/23 11:14:35;;;;;;;23.42;2.97;;;;;;;7.26;84.38;100583.81;5065812;28;20124;-82
2020/12/23 11:17:00;;;;;;;17.67;3.63;;;;;;;7.26;84.00;100586.53;5012250;28;20036;-82
2020/12/23 11:19:26;;;;;;;19.88;2.95;;;;;;;7.25;84.23;100576.72;5048504;28;20029;-87
2020/12/23 11:21:51;;;;;;;16.88;2.90;;;;;;;7.24;84.24;100575.09;5045373;28;20039;-78
2020/12/23 11:24:17;;;;;;;11.80;2.63;;;;;;;7.23;84.09;100570.75;5036073;28;20029;-80
2020/12/23 11:26:43;;;;;;;19.17;2.90;;;;;;;7.21;84.05;100565.59;5030312;28;20537;-80